Terminal Aerodrome Forecast
Issued by NWS

Home | Current Version | Previous Version | Text Only | Print | Product List | Glossary On
Versions: 1 2 3 4 5 6 7 8 9 10 11 12 13 14 15 16 17 18 19 20 21 22 23 24 25 26 27 28 29 30 31 32 33 34 35
000
FTUS45 KBOU 260530
TAFAPA
TAF
KAPA 260530Z 2606/2706 02010KT P6SM VCSH BKN015 OVC050
     FM260800 35008KT P6SM BKN020 OVC070
     FM260900 34004KT P6SM SCT020 BKN080
     FM261100 24004KT P6SM SCT200
     FM261700 33004KT P6SM SCT200
     FM262000 33009KT P6SM SCT100 BKN200
     FM270200 22006KT P6SM BKN080 BKN150=

USA.gov is the U.S. government's official web portal to all federal, state and local government web resources and services.